METAR Data
IDs: Format: Raw Decoded Include TAF

Data at: 1356 UTC 14 Dec 2019

PAGH 141256Z AUTO 10016KT 10SM CLR M05/M11 A2969 RMK AO2 SLP060 T10501111 FZRANO
PAGH 141156Z AUTO 10015KT 10SM CLR M06/M12 A2969 RMK AO2 SLP062 T10561117 11044 21056 51005 FZRANO
PAGH 141056Z AUTO 10019KT 10SM CLR M05/M12 A2968 RMK AO2 SLP060 T10501117 FZRANO
PAGH 140956Z AUTO 09020G25KT 10SM CLR M05/M11 A2969 RMK AO2 SLP061 T10501111 FZRANO
PAGH 140856Z AUTO 10019G25KT 10SM CLR M05/M11 A2968 RMK AO2 PK WND 11030/0815 SLP057 T10501111 410441111 53008 FZRANO
PAGH 140756Z AUTO 10017G23KT 10SM OVC070 M05/M11 A2967 RMK AO2 SLP054 T10501111 FZRANO
PAGH 140656Z AUTO 10017G22KT 10SM OVC070 M05/M11 A2966 RMK AO2 PK WND 11026/0605 SLP051 T10501111 FZRANO
PAGH 140556Z AUTO 10019G26KT 10SM BKN065 M05/M11 A2965 RMK AO2 PK WND 11028/0458 SLP049 T10501111 11044 21061 53018 FZRANO
PAGH 140456Z AUTO 10019G28KT 10SM FEW075 M05/M11 A2963 RMK AO2 PK WND 11029/0359 SLP041 T10501111 FZRANO
PAGH 140356Z AUTO 10019G29KT 10SM OVC070 M05/M12 A2961 RMK AO2 PK WND 11034/0326 SLP033 T10501117 FZRANO
PAGH 140256Z AUTO 10019G26KT 10SM BKN070 M05/M11 A2960 RMK AO2 PK WND 10030/0205 SLP031 T10501111 53012 FZRANO
PAGH 140156Z AUTO 10021G27KT 10SM CLR M05/M11 A2958 RMK AO2 PK WND 11034/0128 SLP024 T10501111 FZRANO
PAGH 140056Z AUTO 12023G34KT 10SM FEW085 M04/M12 A2956 RMK AO2 PK WND 11034/0047 SLP017 T10441117 FZRANO
PAGH 132356Z AUTO 11016G23KT 10SM BKN055 M06/M12 A2956 RMK AO2 PK WND 12026/2321 SLP018 T10611117 11056 21089 53017 FZRANO
PAGH 132256Z AUTO 11018G21KT 10SM SCT090 M06/M12 A2954 RMK AO2 PK WND 12026/2221 SLP008 T10611122 FZRANO
PAGH 132156Z AUTO 10014KT 10SM CLR M07/M13 A2952 RMK AO2 SLP003 T10671128 FZRANO
PAGH 132056Z AUTO 11017G22KT 10SM SCT035 M07/M14 A2951 RMK AO2 SLP001 T10721139 50009 FZRANO
PAGH 131956Z AUTO 08007KT 10SM BKN043 BKN049 M08/M16 A2952 RMK AO2 SLP003 T10831156 FZRANO
PAGH 131856Z AUTO 09015KT 10SM BKN043 OVC055 M08/M16 A2949 RMK AO2 SLP994 T10831161 FZRANO
PAGH 131756Z AUTO 09015KT 10SM BKN049 OVC060 M09/M17 A2948 RMK AO2 SLP992 T10891172 11083 21111 50002 FZRANO
PAGH 131556Z AUTO 19009KT 10SM CLR M11/M18 A2951 RMK AO2 PK WND 09027/1516 SLP999 T11061183 FZRANO
PAGH 131456Z AUTO 10018G26KT 10SM CLR M09/M18 A2948 RMK AO2 PK WND 11027/1437 SLP989 T10891183 58006 FZRANO
PAGH 131356Z AUTO 09014G25KT 10SM CLR M08/M18 A2949 RMK AO2 PK WND 10026/1345 SLP995 T10831183 FZRANO
PAGH 131256Z AUTO 08017G24KT 10SM CLR M09/M18 A2949 RMK AO2 SLP993 T10891183 FZRANO
PAGH 131156Z AUTO 10015G21KT 10SM CLR M09/M18 A2950 RMK AO2 PK WND 10029/1059 SLP996 T10891183 11072 21089 53001 FZRANO
PAGH 131056Z AUTO 10021G28KT 10SM CLR M08/M17 A2949 RMK AO2 PK WND 10028/1054 SLP994 T10831172 FZRANO
PAGH 130956Z AUTO 09018KT 10SM CLR M08/M17 A2950 RMK AO2 SLP996 T10831167 FZRANO
PAGH 130856Z AUTO 09021KT 10SM CLR M08/M16 A2950 RMK AO2 PK WND 09026/0854 SLP996 T10831161 410331083 56012 FZRANO
PAGH 130756Z AUTO 09015KT 10SM CLR M08/M16 A2950 RMK AO2 SLP998 T10781156 FZRANO
PAGH 130656Z AUTO 09019KT 10SM CLR M08/M15 A2952 RMK AO2 SLP005 T10781150 FZRANO
PAGH 130556Z AUTO 09015KT 10SM CLR M07/M14 A2953 RMK AO2 PK WND 08026/0501 SLP007 T10721144 11039 21072 58006 FZRANO
PAGH 130456Z AUTO 08018KT 10SM CLR M07/M14 A2954 RMK AO2 SLP010 T10671139 FZRANO
PAGH 130356Z AUTO 08015G22KT 10SM CLR M07/M13 A2955 RMK AO2 SLP015 T10671133 FZRANO
PAGH 130256Z AUTO 08015KT 10SM CLR M06/M13 A2955 RMK AO2 SLP012 T10561128 58000 FZRANO